CEQ3 weather

Public forecast

Using degrees Celsius for public forecast. Weather courtesy of forecast.io.

Closest aviation weather report (METAR) to Camrose Airport

Closest report is Edmonton International Airport, 31.9 nm (59.1 km) WNW. Retrieved 2020/08/14 18:00 UTC (53 minutes ago):

CYEG 141800Z 18007KT 150V250 20SM FEW050 SCT090 SCT160 BKN240 18/06 A2998 RMK CU1ACC3AC1CI3 CU TR SLP159 DENSITY ALT 3300FT

Closest aviation forecast (TAF) to Camrose Airport

Closest forecast is Edmonton International Airport, 31.9 nm (59.1 km) WNW. Retrieved 2020/08/14 18:39 UTC (14 minutes ago):

TAF CYEG 141738Z 1418/1518 22005KT P6SM BKN090 BKN120 BKN220 BECMG 1418/1420 28012KT FM150500 27006KT P6SM BKN060 OVC200 FM151500 27010KT P6SM BKN060 OVC200 RMK NXT FCST BY 142100Z